Terminal Aerodrome Forecast
Issued by NWS

Home | Current Version | Previous Version | Text Only | Print | Product List | Glossary On
Versions: 1 2 3 4 5 6 7 8 9 10 11 12 13 14 15 16 17 18 19 20 21 22 23 24 25 26
000
FTUS45 KBOI 140520
TAFTWF
TAF
KTWF 140520Z 1406/1506 19010KT P6SM OVC120
     FM141300 22012KT P6SM VCSH OVC050
      TEMPO 1413/1415 6SM -RA BR BKN040
     FM141500 23015G25KT 6SM -RA BR SCT020 OVC040
     FM142100 25017G27KT P6SM VCSH OVC050=

USA.gov is the U.S. government's official web portal to all federal, state and local government web resources and services.